Time;durP1;ratioP1;P1;durP2;ratioP2;P2;SDS_P1;SDS_P2;PMS_P1;PMS_P2;Temp;Humidity;BMP_temperature;BMP_pressure;BME280_temperature;BME280_humidity;BME280_pressure;Samples;Min_cycle;Max_cycle;Signal;HPM_P1;HPM_P2
2022/06/24 00:01:34;;;;;;;;;;;;;;;;;;4946646;28;106613;-69
2022/06/24 00:04:01;;;;;;;;;;;;;;;;;;4947304;28;107182;-65
2022/06/24 00:06:27;;;;;;;;;;;;;;;;;;4948513;28;118441;-65
2022/06/24 00:08:53;;;;;;;;;;;;;;;;;;4944324;28;129427;-65
2022/06/24 00:11:20;;;;;;;;;;;;;;;;;;4946239;28;114819;-65
2022/06/24 00:13:46;;;;;;;;;;;;;;;;;;4943766;28;137705;-65
2022/06/24 00:16:12;;;;;;;;;;;;;;;;;;4942276;28;135861;-65
2022/06/24 00:18:39;;;;;;;;;;;;;;;;;;4939373;28;122472;-64
2022/06/24 00:21:05;;;;;;;;;;;;;;;;;;4933120;28;110345;-65
2022/06/24 00:23:31;;;;;;;;;;;;;;;;;;4949793;28;133249;-64
2022/06/24 00:25:58;;;;;;;;;;;;;;;;;;4945430;28;117024;-66
2022/06/24 00:28:24;;;;;;;;;;;;;;;;;;4948796;28;137525;-65
2022/06/24 00:30:50;;;;;;;;;;;;;;;;;;4944288;28;106305;-64
2022/06/24 00:33:17;;;;;;;;;;;;;;;;;;4948111;28;107259;-65
2022/06/24 00:35:43;;;;;;;;;;;;;;;;;;4921902;28;108660;-65
2022/06/24 00:38:09;;;;;;;;;;;;;;;;;;4949638;28;120559;-65
2022/06/24 00:40:36;;;;;;;;;;;;;;;;;;4947052;28;129840;-65
2022/06/24 00:43:02;;;;;;;;;;;;;;;;;;4942688;28;138504;-65
2022/06/24 00:45:28;;;;;;;;;;;;;;;;;;4944206;28;119256;-65
2022/06/24 00:47:54;;;;;;;;;;;;;;;;;;4937032;28;137369;-64
2022/06/24 00:50:21;;;;;;;;;;;;;;;;;;4941990;28;138206;-67
2022/06/24 00:52:47;;;;;;;;;;;;;;;;;;4949695;28;135244;-65
2022/06/24 00:55:13;;;;;;;;;;;;;;;;;;4930944;28;112193;-65
2022/06/24 00:57:40;;;;;;;;;;;;;;;;;;4932196;28;106270;-65
2022/06/24 01:00:06;;;;;;;;;;;;;;;;;;4941307;28;136813;-65
2022/06/24 01:02:32;;;;;;;;;;;;;;;;;;4946614;28;114546;-65
2022/06/24 01:04:59;;;;;;;;;;;;;;;;;;4943019;28;112289;-65
2022/06/24 01:07:25;;;;;;;;;;;;;;;;;;4948097;28;135440;-65
2022/06/24 01:09:52;;;;;;;;;;;;;;;;;;4942965;28;137234;-65
2022/06/24 01:12:18;;;;;;;;;;;;;;;;;;4946200;28;135298;-65
2022/06/24 01:14:44;;;;;;;;;;;;;;;;;;4945948;28;131774;-65
2022/06/24 01:17:10;;;;;;;;;;;;;;;;;;4948303;28;118653;-65
2022/06/24 01:19:37;;;;;;;;;;;;;;;;;;4945665;28;137372;-65
2022/06/24 01:22:03;;;;;;;;;;;;;;;;;;4945828;28;120125;-65
2022/06/24 01:24:29;;;;;;;;;;;;;;;;;;4933821;28;122741;-65
2022/06/24 01:26:56;;;;;;;;;;;;;;;;;;4947670;28;118197;-66
2022/06/24 01:29:22;;;;;;;;;;;;;;;;;;4939567;28;137244;-66
2022/06/24 01:31:48;;;;;;;;;;;;;;;;;;4938723;28;116245;-64
2022/06/24 01:34:15;;;;;;;;;;;;;;;;;;4946118;28;136340;-64
2022/06/24 01:36:41;;;;;;;;;;;;;;;;;;4949237;28;123753;-65
2022/06/24 01:39:08;;;;;;;;;;;;;;;;;;4929206;28;136990;-64
2022/06/24 01:41:34;;;;;;;;;;;;;;;;;;4946216;28;134428;-65
2022/06/24 01:44:01;;;;;;;;;;;;;;;;;;4944237;28;122355;-64
2022/06/24 01:46:27;;;;;;;;;;;;;;;;;;4939003;28;137630;-64
2022/06/24 01:48:54;;;;;;;;;;;;;;;;;;4944005;28;134126;-64
2022/06/24 01:51:20;;;;;;;;;;;;;;;;;;4939824;28;124540;-63
2022/06/24 01:53:46;;;;;;;;;;;;;;;;;;4949859;28;136001;-64
2022/06/24 01:56:13;;;;;;;;;;;;;;;;;;4947015;28;123626;-63
2022/06/24 01:58:39;;;;;;;;;;;;;;;;;;4935149;28;137860;-64
2022/06/24 02:01:05;;;;;;;;;;;;;;;;;;4937672;28;122230;-64
2022/06/24 02:03:31;;;;;;;;;;;;;;;;;;4947911;28;115829;-63
2022/06/24 02:05:58;;;;;;;;;;;;;;;;;;4947966;28;126086;-64
2022/06/24 02:08:24;;;;;;;;;;;;;;;;;;4946496;28;135322;-64
2022/06/24 02:13:35;;;;;;;;;;;;;;;;;;4942391;28;136334;-64
2022/06/24 02:16:02;;;;;;;;;;;;;;;;;;4949995;28;133259;-64
2022/06/24 02:18:28;;;;;;;;;;;;;;;;;;4944009;28;113041;-64
2022/06/24 02:20:54;;;;;;;;;;;;;;;;;;4941437;28;108449;-63
2022/06/24 02:23:21;;;;;;;;;;;;;;;;;;4938012;28;122068;-68
2022/06/24 02:25:47;;;;;;;;;;;;;;;;;;4943318;28;135175;-63
2022/06/24 02:28:13;;;;;;;;;;;;;;;;;;4929347;28;137436;-64
2022/06/24 02:30:39;;;;;;;;;;;;;;;;;;4942915;28;121928;-63
2022/06/24 02:33:06;;;;;;;;;;;;;;;;;;4941982;28;130959;-63
2022/06/24 02:35:32;;;;;;;;;;;;;;;;;;4943991;28;134839;-63
2022/06/24 02:37:59;;;;;;;;;;;;;;;;;;4931923;28;108391;-63
2022/06/24 02:40:59;;;;;;;;;;;;;;;;;;4944719;28;129318;-63
2022/06/24 02:43:18;;;;;;;;;;;;;;;;;;4940078;28;107036;-63
2022/06/24 02:45:44;;;;;;;;;;;;;;;;;;4932599;28;133478;-64
2022/06/24 02:48:10;;;;;;;;;;;;;;;;;;4947081;28;136858;-64
2022/06/24 02:50:36;;;;;;;;;;;;;;;;;;4934828;28;123255;-64
2022/06/24 02:53:07;;;;;;;;;;;;;;;;;;4943118;28;136615;-64
2022/06/24 02:55:33;;;;;;;;;;;;;;;;;;4942271;28;133943;-69
2022/06/24 02:58:00;;;;;;;;;;;;;;;;;;4940008;28;107160;-63
2022/06/24 03:00:26;;;;;;;;;;;;;;;;;;4948064;28;137767;-64
2022/06/24 03:02:52;;;;;;;;;;;;;;;;;;4938602;28;116809;-64
2022/06/24 03:05:19;;;;;;;;;;;;;;;;;;4950302;28;137889;-64
2022/06/24 03:07:45;;;;;;;;;;;;;;;;;;4949222;28;136626;-64
2022/06/24 03:10:11;;;;;;;;;;;;;;;;;;4949613;28;123252;-64
2022/06/24 03:12:38;;;;;;;;;;;;;;;;;;4944813;28;122748;-64
2022/06/24 03:15:04;;;;;;;;;;;;;;;;;;4951518;28;131486;-68
2022/06/24 03:17:30;;;;;;;;;;;;;;;;;;4948011;28;121034;-63
2022/06/24 03:19:57;;;;;;;;;;;;;;;;;;4946534;28;136467;-64
2022/06/24 03:22:23;;;;;;;;;;;;;;;;;;4946774;28;121593;-64
2022/06/24 03:24:49;;;;;;;;;;;;;;;;;;4951145;28;133962;-63
2022/06/24 03:27:15;;;;;;;;;;;;;;;;;;4945079;28;137131;-63
2022/06/24 03:29:42;;;;;;;;;;;;;;;;;;4946865;28;123731;-63
2022/06/24 03:32:08;;;;;;;;;;;;;;;;;;4935571;28;135068;-64
2022/06/24 03:34:34;;;;;;;;;;;;;;;;;;4949669;28;135559;-64
2022/06/24 03:37:01;;;;;;;;;;;;;;;;;;4950593;28;107048;-64
2022/06/24 03:39:27;;;;;;;;;;;;;;;;;;4947174;28;122745;-64
2022/06/24 03:41:53;;;;;;;;;;;;;;;;;;4949008;28;124409;-65
2022/06/24 03:44:19;;;;;;;;;;;;;;;;;;4946932;28;136478;-64
2022/06/24 03:46:46;;;;;;;;;;;;;;;;;;4940798;28;132199;-64
2022/06/24 03:49:12;;;;;;;;;;;;;;;;;;4948753;28;108520;-65
2022/06/24 03:51:38;;;;;;;;;;;;;;;;;;4947807;28;111678;-65
2022/06/24 03:54:05;;;;;;;;;;;;;;;;;;4943826;28;138282;-65
2022/06/24 03:56:31;;;;;;;;;;;;;;;;;;4942607;28;119460;-64
2022/06/24 03:58:57;;;;;;;;;;;;;;;;;;4948157;28;136732;-64
2022/06/24 04:01:23;;;;;;;;;;;;;;;;;;4949855;28;131098;-64
2022/06/24 04:03:50;;;;;;;;;;;;;;;;;;4947726;28;120021;-64
2022/06/24 04:06:16;;;;;;;;;;;;;;;;;;4946910;28;113055;-64
2022/06/24 04:08:43;;;;;;;;;;;;;;;;;;4945970;28;107240;-65
2022/06/24 04:11:10;;;;;;;;;;;;;;;;;;4943858;28;134979;-64
2022/06/24 04:13:36;;;;;;;;;;;;;;;;;;4947985;28;107915;-64
2022/06/24 04:16:02;;;;;;;;;;;;;;;;;;4946725;28;106356;-64
2022/06/24 04:18:29;;;;;;;;;;;;;;;;;;4946509;28;108609;-64
2022/06/24 04:20:55;;;;;;;;;;;;;;;;;;4947848;28;135341;-62
2022/06/24 04:23:21;;;;;;;;;;;;;;;;;;4943522;28;123281;-64
2022/06/24 04:25:48;;;;;;;;;;;;;;;;;;4928732;28;132848;-63
2022/06/24 04:28:14;;;;;;;;;;;;;;;;;;4943413;28;107040;-63
2022/06/24 04:30:40;;;;;;;;;;;;;;;;;;4943897;28;118678;-65
2022/06/24 04:33:06;;;;;;;;;;;;;;;;;;4943544;28;121841;-63
2022/06/24 04:35:33;;;;;;;;;;;;;;;;;;4945864;28;117473;-64
2022/06/24 04:37:59;;;;;;;;;;;;;;;;;;4940094;28;127330;-63
2022/06/24 04:40:25;;;;;;;;;;;;;;;;;;4942260;28;136432;-63
2022/06/24 04:42:51;;;;;;;;;;;;;;;;;;4949630;28;106028;-63
2022/06/24 04:45:18;;;;;;;;;;;;;;;;;;4943741;28;136426;-63
2022/06/24 04:47:44;;;;;;;;;;;;;;;;;;4943439;28;137258;-63
2022/06/24 04:50:10;;;;;;;;;;;;;;;;;;4948678;28;134691;-63
2022/06/24 04:52:37;;;;;;;;;;;;;;;;;;4947215;28;128649;-63
2022/06/24 04:55:03;;;;;;;;;;;;;;;;;;4941543;28;107581;-63
2022/06/24 04:57:29;;;;;;;;;;;;;;;;;;4948942;28;106542;-63
2022/06/24 04:59:56;;;;;;;;;;;;;;;;;;4947439;28;138492;-63
2022/06/24 05:02:22;;;;;;;;;;;;;;;;;;4945346;28;120398;-64
2022/06/24 05:04:48;;;;;;;;;;;;;;;;;;4934302;28;134918;-64
2022/06/24 05:07:14;;;;;;;;;;;;;;;;;;4945542;28;136502;-63
2022/06/24 05:09:42;;;;;;;;;;;;;;;;;;4950385;28;106955;-64
2022/06/24 05:12:08;;;;;;;;;;;;;;;;;;4947103;28;138248;-63
2022/06/24 05:14:35;;;;;;;;;;;;;;;;;;4948036;28;123452;-65
2022/06/24 05:17:01;;;;;;;;;;;;;;;;;;4948769;28;135769;-63
2022/06/24 05:19:27;;;;;;;;;;;;;;;;;;4946390;28;123543;-63
2022/06/24 05:21:54;;;;;;;;;;;;;;;;;;4947982;28;122037;-63
2022/06/24 05:24:20;;;;;;;;;;;;;;;;;;4942441;28;135104;-63
2022/06/24 05:26:46;;;;;;;;;;;;;;;;;;4944018;28;132648;-63
2022/06/24 05:29:13;;;;;;;;;;;;;;;;;;4952708;28;106783;-63
2022/06/24 05:31:39;;;;;;;;;;;;;;;;;;4945547;28;135808;-64
2022/06/24 05:34:07;;;;;;;;;;;;;;;;;;4944638;28;106403;-63
2022/06/24 05:36:34;;;;;;;;;;;;;;;;;;4948238;28;119388;-64
2022/06/24 05:39:00;;;;;;;;;;;;;;;;;;4933872;28;137034;-63
2022/06/24 05:41:26;;;;;;;;;;;;;;;;;;4936422;28;117094;-64
2022/06/24 05:43:53;;;;;;;;;;;;;;;;;;4943631;28;112311;-63
2022/06/24 05:46:25;;;;;;;;;;;;;;;;;;4929232;28;136413;-64
2022/06/24 05:48:51;;;;;;;;;;;;;;;;;;4939089;28;121658;-64
2022/06/24 05:51:18;;;;;;;;;;;;;;;;;;4941231;28;130247;-64
2022/06/24 05:56:29;;;;;;;;;;;;;;;;;;4939555;28;134376;-64
2022/06/24 05:58:57;;;;;;;;;;;;;;;;;;4938538;28;131503;-64
2022/06/24 06:01:23;;;;;;;;;;;;;;;;;;4942103;28;106040;-64
2022/06/24 06:03:49;;;;;;;;;;;;;;;;;;4944172;28;106714;-64
2022/06/24 06:06:16;;;;;;;;;;;;;;;;;;4937537;28;136807;-64
2022/06/24 06:08:42;;;;;;;;;;;;;;;;;;4944364;28;120145;-63
2022/06/24 06:11:08;;;;;;;;;;;;;;;;;;4941417;28;106861;-64
2022/06/24 06:13:34;;;;;;;;;;;;;;;;;;4937745;28;135751;-64
2022/06/24 06:16:01;;;;;;;;;;;;;;;;;;4941725;28;136760;-64
2022/06/24 06:18:27;;;;;;;;;;;;;;;;;;4931278;28;132211;-67
2022/06/24 06:20:53;;;;;;;;;;;;;;;;;;4921527;28;122330;-64
2022/06/24 06:23:19;;;;;;;;;;;;;;;;;;4945581;28;135390;-65
2022/06/24 06:25:46;;;;;;;;;;;;;;;;;;4937931;28;107446;-67
2022/06/24 06:28:12;;;;;;;;;;;;;;;;;;4944770;28;108696;-67
2022/06/24 06:30:38;;;;;;;;;;;;;;;;;;4935852;28;137593;-67
2022/06/24 06:33:06;;;;;;;;;;;;;;;;;;4940203;28;127588;-73
2022/06/24 06:35:32;;;;;;;;;;;;;;;;;;4945105;28;124125;-69
2022/06/24 06:37:58;;;;;;;;;;;;;;;;;;4928460;28;109216;-66
2022/06/24 06:40:24;;;;;;;;;;;;;;;;;;4948432;28;126518;-67
2022/06/24 06:42:55;;;;;;;;;;;;;;;;;;4949919;28;134703;-66
2022/06/24 06:45:21;;;;;;;;;;;;;;;;;;4946179;28;135792;-70
2022/06/24 06:47:47;;;;;;;;;;;;;;;;;;4945552;28;117460;-68
2022/06/24 06:50:13;;;;;;;;;;;;;;;;;;4945868;28;136260;-67
2022/06/24 06:52:40;;;;;;;;;;;;;;;;;;4948072;28;119300;-67
2022/06/24 06:55:06;;;;;;;;;;;;;;;;;;4946622;28;106340;-68
2022/06/24 06:57:32;;;;;;;;;;;;;;;;;;4947735;28;119693;-67
2022/06/24 06:59:59;;;;;;;;;;;;;;;;;;4946720;28;108149;-67
2022/06/24 07:02:25;;;;;;;;;;;;;;;;;;4942259;28;124212;-68
2022/06/24 07:04:51;;;;;;;;;;;;;;;;;;4944562;28;136293;-67
2022/06/24 07:07:18;;;;;;;;;;;;;;;;;;4945578;28;110202;-68
2022/06/24 07:09:44;;;;;;;;;;;;;;;;;;4948414;28;115721;-67
2022/06/24 07:12:11;;;;;;;;;;;;;;;;;;4941287;28;132976;-68
2022/06/24 07:14:37;;;;;;;;;;;;;;;;;;4923399;28;121704;-70
2022/06/24 07:17:10;;;;;;;;;;;;;;;;;;4945193;28;125324;-64
2022/06/24 07:19:36;;;;;;;;;;;;;;;;;;4952086;28;107404;-65
2022/06/24 07:22:02;;;;;;;;;;;;;;;;;;4942317;28;134832;-64
2022/06/24 07:24:29;;;;;;;;;;;;;;;;;;4947706;28;110858;-65
2022/06/24 07:26:55;;;;;;;;;;;;;;;;;;4946835;28;107137;-64
2022/06/24 07:29:21;;;;;;;;;;;;;;;;;;4942127;28;122221;-65
2022/06/24 07:31:48;;;;;;;;;;;;;;;;;;4941093;28;123887;-64
2022/06/24 07:34:18;;;;;;;;;;;;;;;;;;4942361;28;119017;-66
2022/06/24 07:36:44;;;;;;;;;;;;;;;;;;4945744;28;136818;-64
2022/06/24 07:39:10;;;;;;;;;;;;;;;;;;4952692;28;135704;-64
2022/06/24 07:41:37;;;;;;;;;;;;;;;;;;4950073;28;107891;-65
2022/06/24 07:44:03;;;;;;;;;;;;;;;;;;4950425;28;136408;-65
2022/06/24 07:46:29;;;;;;;;;;;;;;;;;;4945928;28;106897;-64
2022/06/24 07:48:56;;;;;;;;;;;;;;;;;;4948001;28;134024;-65
2022/06/24 07:51:25;;;;;;;;;;;;;;;;;;4935888;28;131136;-64
2022/06/24 07:53:51;;;;;;;;;;;;;;;;;;4928857;28;124621;-64
2022/06/24 07:59:03;;;;;;;;;;;;;;;;;;4950130;28;134168;-64
2022/06/24 08:01:29;;;;;;;;;;;;;;;;;;4952725;28;106625;-64
2022/06/24 08:03:55;;;;;;;;;;;;;;;;;;4948205;28;118000;-64
2022/06/24 08:06:22;;;;;;;;;;;;;;;;;;4923499;28;123956;-66
2022/06/24 08:08:48;;;;;;;;;;;;;;;;;;4949747;28;135512;-67
2022/06/24 08:11:14;;;;;;;;;;;;;;;;;;4943864;28;120201;-63
2022/06/24 08:13:41;;;;;;;;;;;;;;;;;;4933228;28;120688;-66
2022/06/24 08:16:07;;;;;;;;;;;;;;;;;;4938995;28;137157;-67
2022/06/24 08:18:34;;;;;;;;;;;;;;;;;;4939982;28;122270;-67
2022/06/24 08:21:00;;;;;;;;;;;;;;;;;;4948169;28;124525;-65
2022/06/24 08:23:26;;;;;;;;;;;;;;;;;;4944180;28;129389;-67
2022/06/24 08:25:53;;;;;;;;;;;;;;;;;;4946343;28;106950;-66
2022/06/24 08:28:19;;;;;;;;;;;;;;;;;;4945535;28;113876;-68
2022/06/24 08:30:49;;;;;;;;;;;;;;;;;;4941650;28;125532;-67
2022/06/24 08:33:15;;;;;;;;;;;;;;;;;;4943660;28;106438;-66
2022/06/24 08:35:41;;;;;;;;;;;;;;;;;;4942606;28;123240;-67
2022/06/24 08:38:08;;;;;;;;;;;;;;;;;;4940657;28;134617;-66
2022/06/24 08:40:34;;;;;;;;;;;;;;;;;;4926959;28;121707;-66
2022/06/24 08:43:01;;;;;;;;;;;;;;;;;;4918615;28;131226;-66
2022/06/24 08:45:27;;;;;;;;;;;;;;;;;;4942145;28;132149;-65
2022/06/24 08:47:53;;;;;;;;;;;;;;;;;;4940461;28;130595;-67
2022/06/24 08:50:20;;;;;;;;;;;;;;;;;;4940602;28;135046;-64
2022/06/24 08:52:46;;;;;;;;;;;;;;;;;;4921337;28;122721;-70
2022/06/24 08:55:18;;;;;;;;;;;;;;;;;;4939133;28;131321;-68
2022/06/24 08:57:44;;;;;;;;;;;;;;;;;;4941109;28;137087;-68
2022/06/24 09:00:11;;;;;;;;;;;;;;;;;;4946342;28;121333;-68
2022/06/24 09:02:37;;;;;;;;;;;;;;;;;;4942336;28;107121;-69
2022/06/24 09:05:03;;;;;;;;;;;;;;;;;;4941234;28;118416;-66
2022/06/24 09:07:30;;;;;;;;;;;;;;;;;;4943746;28;124261;-67
2022/06/24 09:09:56;;;;;;;;;;;;;;;;;;4912827;28;136697;-69
2022/06/24 09:12:22;;;;;;;;;;;;;;;;;;4939368;28;108577;-69
2022/06/24 09:14:49;;;;;;;;;;;;;;;;;;4936682;28;135807;-67
2022/06/24 09:17:15;;;;;;;;;;;;;;;;;;4938571;28;108093;-67
2022/06/24 09:19:41;;;;;;;;;;;;;;;;;;4942788;28;118187;-69
2022/06/24 09:22:08;;;;;;;;;;;;;;;;;;4948796;28;112515;-69
2022/06/24 09:24:35;;;;;;;;;;;;;;;;;;4938787;28;136729;-67
2022/06/24 09:27:01;;;;;;;;;;;;;;;;;;4934465;28;119938;-67
2022/06/24 09:29:28;;;;;;;;;;;;;;;;;;4924268;28;127244;-68
2022/06/24 09:31:54;;;;;;;;;;;;;;;;;;4918781;28;119970;-68
2022/06/24 09:34:20;;;;;;;;;;;;;;;;;;4938233;28;124959;-66
2022/06/24 09:36:48;;;;;;;;;;;;;;;;;;4938081;28;115132;-67
2022/06/24 09:39:14;;;;;;;;;;;;;;;;;;4937011;28;122626;-67
2022/06/24 09:41:48;;;;;;;;;;;;;;;;;;4940175;28;122339;-67
2022/06/24 09:44:14;;;;;;;;;;;;;;;;;;4930864;28;114042;-65
2022/06/24 09:46:40;;;;;;;;;;;;;;;;;;4934898;28;116323;-64
2022/06/24 09:49:07;;;;;;;;;;;;;;;;;;4944515;28;135489;-64
2022/06/24 09:51:33;;;;;;;;;;;;;;;;;;4943017;28;122349;-65
2022/06/24 09:53:59;;;;;;;;;;;;;;;;;;4944458;28;134539;-65
2022/06/24 09:56:26;;;;;;;;;;;;;;;;;;4946239;28;129515;-64
2022/06/24 10:01:37;;;;;;;;;;;;;;;;;;4937264;28;106730;-64
2022/06/24 10:04:03;;;;;;;;;;;;;;;;;;4944421;28;138103;-66
2022/06/24 10:06:30;;;;;;;;;;;;;;;;;;4941331;28;106617;-64
2022/06/24 10:08:56;;;;;;;;;;;;;;;;;;4945463;28;137598;-64
2022/06/24 10:11:33;;;;;;;;;;;;;;;;;;4951155;28;128639;-64
2022/06/24 10:13:59;;;;;;;;;;;;;;;;;;4927854;28;135948;-63
2022/06/24 10:16:26;;;;;;;;;;;;;;;;;;4943376;28;107989;-64
2022/06/24 10:18:52;;;;;;;;;;;;;;;;;;4944396;28;107789;-64
2022/06/24 10:21:18;;;;;;;;;;;;;;;;;;4946666;28;137356;-64
2022/06/24 10:23:45;;;;;;;;;;;;;;;;;;4940536;28;137487;-64
2022/06/24 10:26:11;;;;;;;;;;;;;;;;;;4940921;28;120361;-63
2022/06/24 10:28:37;;;;;;;;;;;;;;;;;;4930836;28;106528;-64
2022/06/24 10:31:04;;;;;;;;;;;;;;;;;;4944267;28;136550;-66
2022/06/24 10:33:30;;;;;;;;;;;;;;;;;;4946393;28;106554;-63
2022/06/24 10:35:56;;;;;;;;;;;;;;;;;;4938375;28;133097;-63
2022/06/24 10:38:23;;;;;;;;;;;;;;;;;;4937398;28;118701;-62
2022/06/24 10:40:49;;;;;;;;;;;;;;;;;;4945738;28;133090;-62
2022/06/24 10:43:21;;;;;;;;;;;;;;;;;;4927966;28;130535;-61
2022/06/24 10:45:48;;;;;;;;;;;;;;;;;;4936441;28;121627;-62
2022/06/24 10:48:14;;;;;;;;;;;;;;;;;;4934708;28;136251;-62
2022/06/24 10:50:40;;;;;;;;;;;;;;;;;;4945529;28;126901;-62
2022/06/24 10:53:07;;;;;;;;;;;;;;;;;;4943522;28;108514;-62
2022/06/24 10:55:33;;;;;;;;;;;;;;;;;;4943212;28;107346;-62
2022/06/24 10:58:00;;;;;;;;;;;;;;;;;;4940845;28;115733;-62
2022/06/24 11:00:27;;;;;;;;;;;;;;;;;;4932920;28;136574;-62
2022/06/24 11:02:53;;;;;;;;;;;;;;;;;;4946053;28;135039;-62
2022/06/24 11:05:19;;;;;;;;;;;;;;;;;;4947998;28;117187;-63
2022/06/24 11:07:46;;;;;;;;;;;;;;;;;;4948164;28;136382;-62
2022/06/24 11:10:12;;;;;;;;;;;;;;;;;;4945753;28;125964;-62
2022/06/24 11:12:38;;;;;;;;;;;;;;;;;;4948782;28;123184;-62
2022/06/24 11:15:05;;;;;;;;;;;;;;;;;;4948060;28;141423;-62
2022/06/24 11:17:31;;;;;;;;;;;;;;;;;;4918979;28;109813;-62
2022/06/24 11:19:57;;;;;;;;;;;;;;;;;;4946035;28;130217;-62
2022/06/24 11:22:24;;;;;;;;;;;;;;;;;;4936654;28;131226;-62
2022/06/24 11:24:50;;;;;;;;;;;;;;;;;;4948498;28;124063;-62
2022/06/24 11:27:16;;;;;;;;;;;;;;;;;;4950669;28;110419;-62
2022/06/24 11:29:42;;;;;;;;;;;;;;;;;;4932111;28;134576;-62
2022/06/24 11:32:09;;;;;;;;;;;;;;;;;;4942323;28;124250;-63
2022/06/24 11:34:35;;;;;;;;;;;;;;;;;;4940953;28;109236;-63
2022/06/24 11:37:01;;;;;;;;;;;;;;;;;;4951207;28;136505;-62
2022/06/24 11:39:27;;;;;;;;;;;;;;;;;;4944836;28;132431;-62
2022/06/24 11:41:54;;;;;;;;;;;;;;;;;;4954808;28;114047;-62
2022/06/24 11:44:20;;;;;;;;;;;;;;;;;;4947216;28;107065;-62
2022/06/24 11:46:47;;;;;;;;;;;;;;;;;;4945802;28;107384;-62
2022/06/24 11:49:13;;;;;;;;;;;;;;;;;;4946721;28;111029;-63
2022/06/24 11:51:39;;;;;;;;;;;;;;;;;;4946923;28;121572;-62
2022/06/24 11:54:06;;;;;;;;;;;;;;;;;;4945560;28;116482;-64
2022/06/24 11:56:32;;;;;;;;;;;;;;;;;;4949002;28;114319;-64
2022/06/24 11:58:58;;;;;;;;;;;;;;;;;;4942714;28;123556;-64
2022/06/24 12:01:25;;;;;;;;;;;;;;;;;;4935078;28;139320;-64
2022/06/24 12:03:51;;;;;;;;;;;;;;;;;;4938626;28;107121;-63
2022/06/24 12:06:17;;;;;;;;;;;;;;;;;;4937866;28;132613;-63
2022/06/24 12:08:44;;;;;;;;;;;;;;;;;;4946376;28;107846;-63
2022/06/24 12:11:10;;;;;;;;;;;;;;;;;;4946386;28;114188;-63
2022/06/24 12:13:36;;;;;;;;;;;;;;;;;;4946046;28;136456;-63
2022/06/24 12:16:03;;;;;;;;;;;;;;;;;;4947403;28;111392;-64
2022/06/24 12:18:30;;;;;;;;;;;;;;;;;;4931041;28;117120;-63
2022/06/24 12:20:56;;;;;;;;;;;;;;;;;;4947640;28;134756;-63
2022/06/24 12:23:22;;;;;;;;;;;;;;;;;;4948616;28;106216;-63
2022/06/24 12:25:49;;;;;;;;;;;;;;;;;;4945897;28;136355;-63
2022/06/24 12:28:15;;;;;;;;;;;;;;;;;;4945814;28;135084;-62
2022/06/24 12:30:41;;;;;;;;;;;;;;;;;;4944145;28;118282;-67
2022/06/24 12:33:08;;;;;;;;;;;;;;;;;;4938615;28;134963;-64
2022/06/24 12:35:34;;;;;;;;;;;;;;;;;;4953389;28;136315;-63
2022/06/24 12:38:00;;;;;;;;;;;;;;;;;;4949657;28;115395;-62
2022/06/24 12:40:27;;;;;;;;;;;;;;;;;;4947725;28;120462;-62
2022/06/24 12:42:53;;;;;;;;;;;;;;;;;;4946933;28;130160;-62
2022/06/24 12:45:19;;;;;;;;;;;;;;;;;;4933902;28;111904;-63
2022/06/24 12:50:38;;;;;;;;;;;;;;;;;;4946322;28;109182;-62
2022/06/24 12:53:05;;;;;;;;;;;;;;;;;;4948538;28;130620;-67
2022/06/24 12:55:31;;;;;;;;;;;;;;;;;;4947923;28;110338;-62
2022/06/24 12:57:58;;;;;;;;;;;;;;;;;;4947077;28;123092;-62
2022/06/24 13:00:24;;;;;;;;;;;;;;;;;;4943774;28;120356;-62
2022/06/24 13:02:54;;;;;;;;;;;;;;;;;;4934105;28;108999;-62
2022/06/24 13:05:20;;;;;;;;;;;;;;;;;;4933683;28;121715;-63
2022/06/24 13:07:46;;;;;;;;;;;;;;;;;;4948071;28;132588;-62
2022/06/24 13:10:13;;;;;;;;;;;;;;;;;;4940863;28;123679;-62
2022/06/24 13:12:41;;;;;;;;;;;;;;;;;;4943437;28;114199;-63
2022/06/24 13:15:07;;;;;;;;;;;;;;;;;;4947910;28;130097;-63
2022/06/24 13:17:34;;;;;;;;;;;;;;;;;;4946430;28;117240;-63
2022/06/24 13:20:01;;;;;;;;;;;;;;;;;;4937030;28;126293;-62
2022/06/24 13:22:27;;;;;;;;;;;;;;;;;;4939979;28;136953;-63
2022/06/24 13:24:53;;;;;;;;;;;;;;;;;;4942975;28;125076;-68
2022/06/24 13:27:20;;;;;;;;;;;;;;;;;;4947332;28;118423;-65
2022/06/24 13:29:46;;;;;;;;;;;;;;;;;;4942471;28;122661;-64
2022/06/24 13:32:12;;;;;;;;;;;;;;;;;;4942174;28;117553;-63
2022/06/24 13:34:38;;;;;;;;;;;;;;;;;;4942852;28;137638;-65
2022/06/24 13:37:05;;;;;;;;;;;;;;;;;;4944029;28;123599;-65
2022/06/24 13:39:31;;;;;;;;;;;;;;;;;;4938228;28;134897;-67
2022/06/24 13:41:57;;;;;;;;;;;;;;;;;;4945499;28;136309;-67
2022/06/24 13:44:24;;;;;;;;;;;;;;;;;;4942175;28;117688;-66
2022/06/24 13:46:51;;;;;;;;;;;;;;;;;;4948849;28;131048;-67
2022/06/24 13:49:20;;;;;;;;;;;;;;;;;;4923603;28;118108;-67
2022/06/24 13:51:46;;;;;;;;;;;;;;;;;;4942381;28;107110;-64
2022/06/24 13:54:13;;;;;;;;;;;;;;;;;;4942950;28;123527;-66
2022/06/24 13:56:39;;;;;;;;;;;;;;;;;;4942531;28;121675;-67
2022/06/24 13:59:05;;;;;;;;;;;;;;;;;;4921156;28;137616;-65
2022/06/24 14:01:31;;;;;;;;;;;;;;;;;;4940179;28;107567;-65
2022/06/24 14:03:58;;;;;;;;;;;;;;;;;;4943992;28;125268;-66
2022/06/24 14:06:24;;;;;;;;;;;;;;;;;;4922246;28;134287;-66
2022/06/24 14:08:50;;;;;;;;;;;;;;;;;;4932475;28;111065;-65
2022/06/24 14:11:17;;;;;;;;;;;;;;;;;;4944135;28;138219;-63
2022/06/24 14:13:44;;;;;;;;;;;;;;;;;;4939566;28;135960;-63
2022/06/24 14:16:10;;;;;;;;;;;;;;;;;;4934849;28;119467;-64
2022/06/24 14:18:54;;;;;;;;;;;;;;;;;;4942399;28;129081;-63
2022/06/24 14:21:21;;;;;;;;;;;;;;;;;;4945645;28;137045;-67
2022/06/24 14:26:32;;;;;;;;;;;;;;;;;;4930416;28;123582;-65
2022/06/24 14:28:58;;;;;;;;;;;;;;;;;;4935754;28;137918;-63
2022/06/24 14:31:25;;;;;;;;;;;;;;;;;;4936516;28;107838;-68
2022/06/24 14:33:51;;;;;;;;;;;;;;;;;;4932894;28;108324;-66
2022/06/24 14:36:17;;;;;;;;;;;;;;;;;;4934777;28;124835;-63
2022/06/24 14:41:29;;;;;;;;;;;;;;;;;;4922941;28;110692;-67
2022/06/24 14:43:55;;;;;;;;;;;;;;;;;;4939441;28;118835;-66
2022/06/24 14:46:21;;;;;;;;;;;;;;;;;;4920817;28;136344;-68
2022/06/24 14:48:48;;;;;;;;;;;;;;;;;;4939512;28;138292;-67
2022/06/24 14:51:14;;;;;;;;;;;;;;;;;;4946232;28;109900;-66
2022/06/24 14:53:41;;;;;;;;;;;;;;;;;;4945593;28;138732;-65
2022/06/24 14:56:07;;;;;;;;;;;;;;;;;;4947633;28;122961;-66
2022/06/24 14:58:33;;;;;;;;;;;;;;;;;;4947886;28;137897;-67
2022/06/24 15:01:01;;;;;;;;;;;;;;;;;;4938807;28;116312;-66
2022/06/24 15:03:29;;;;;;;;;;;;;;;;;;4940329;28;120378;-65
2022/06/24 15:05:55;;;;;;;;;;;;;;;;;;4949389;28;138003;-66
2022/06/24 15:08:22;;;;;;;;;;;;;;;;;;4938631;28;134803;-65
2022/06/24 15:10:49;;;;;;;;;;;;;;;;;;4945006;28;108302;-66
2022/06/24 15:13:15;;;;;;;;;;;;;;;;;;4942839;28;134063;-65
2022/06/24 15:15:41;;;;;;;;;;;;;;;;;;4951419;28;133141;-65
2022/06/24 15:18:07;;;;;;;;;;;;;;;;;;4939749;28;138551;-64
2022/06/24 15:20:34;;;;;;;;;;;;;;;;;;4946394;28;138213;-68
2022/06/24 15:23:00;;;;;;;;;;;;;;;;;;4926632;28;123766;-64
2022/06/24 15:25:26;;;;;;;;;;;;;;;;;;4947812;28;127307;-65
2022/06/24 15:27:53;;;;;;;;;;;;;;;;;;4947091;28;128090;-67
2022/06/24 15:30:19;;;;;;;;;;;;;;;;;;4947186;28;122208;-65
2022/06/24 15:32:45;;;;;;;;;;;;;;;;;;4938512;28;137305;-65
2022/06/24 15:35:12;;;;;;;;;;;;;;;;;;4948569;28;136848;-64
2022/06/24 15:37:38;;;;;;;;;;;;;;;;;;4950339;28;119431;-65
2022/06/24 15:40:04;;;;;;;;;;;;;;;;;;4934831;28;114821;-68
2022/06/24 15:42:30;;;;;;;;;;;;;;;;;;4946040;28;122501;-66
2022/06/24 15:44:57;;;;;;;;;;;;;;;;;;4946305;28;132634;-64
2022/06/24 15:47:23;;;;;;;;;;;;;;;;;;4923370;28;135768;-66
2022/06/24 15:49:49;;;;;;;;;;;;;;;;;;4937936;28;121944;-64
2022/06/24 15:52:16;;;;;;;;;;;;;;;;;;4936525;28;119472;-63
2022/06/24 15:54:43;;;;;;;;;;;;;;;;;;4934662;28;110619;-63
2022/06/24 15:57:09;;;;;;;;;;;;;;;;;;4948507;28;122809;-63
2022/06/24 15:59:36;;;;;;;;;;;;;;;;;;4946305;28;137352;-62
2022/06/24 16:02:02;;;;;;;;;;;;;;;;;;4936901;28;121550;-61
2022/06/24 16:04:28;;;;;;;;;;;;;;;;;;4941296;28;134921;-62
2022/06/24 16:07:01;;;;;;;;;;;;;;;;;;4943522;28;113591;-62
2022/06/24 16:09:27;;;;;;;;;;;;;;;;;;4949202;28;115860;-62
2022/06/24 16:14:38;;;;;;;;;;;;;;;;;;4944942;28;107382;-62
2022/06/24 16:17:05;;;;;;;;;;;;;;;;;;4945364;28;123366;-62
2022/06/24 16:19:31;;;;;;;;;;;;;;;;;;4941849;28;138016;-63
2022/06/24 16:22:17;;;;;;;;;;;;;;;;;;4948080;28;106506;-61
2022/06/24 16:30:15;;;;;;;;;;;;;;;;;;4944396;28;124761;-62
2022/06/24 16:32:41;;;;;;;;;;;;;;;;;;4922892;28;137107;-63
2022/06/24 16:35:08;;;;;;;;;;;;;;;;;;4942577;28;128888;-63
2022/06/24 16:37:36;;;;;;;;;;;;;;;;;;4942612;28;123543;-66
2022/06/24 16:40:02;;;;;;;;;;;;;;;;;;4948352;28;133277;-63
2022/06/24 16:42:28;;;;;;;;;;;;;;;;;;4949372;28;122835;-67
2022/06/24 16:44:56;;;;;;;;;;;;;;;;;;4941456;28;135462;-63
2022/06/24 16:47:22;;;;;;;;;;;;;;;;;;4944655;28;131078;-64
2022/06/24 16:49:48;;;;;;;;;;;;;;;;;;4941318;28;119801;-63
2022/06/24 16:52:15;;;;;;;;;;;;;;;;;;4943260;28;110536;-65